sensor_id;sensor_type;location;lat;lon;timestamp;P1;durP1;ratioP1;P2;durP2;ratioP2
20026;SDS011;10174;42.688;23.344;2022-07-29T00:00:10;21.58;;;14.43;;
20026;SDS011;10174;42.688;23.344;2022-07-29T00:02:36;21.58;;;14.32;;
20026;SDS011;10174;42.688;23.344;2022-07-29T00:05:03;18.83;;;13.95;;
20026;SDS011;10174;42.688;23.344;2022-07-29T00:07:29;17.80;;;13.63;;
20026;SDS011;10174;42.688;23.344;2022-07-29T00:09:55;17.95;;;13.20;;
20026;SDS011;10174;42.688;23.344;2022-07-29T00:12:20;25.77;;;14.73;;
20026;SDS011;10174;42.688;23.344;2022-07-29T00:14:47;23.52;;;14.10;;
20026;SDS011;10174;42.688;23.344;2022-07-29T00:17:13;21.88;;;14.13;;
20026;SDS011;10174;42.688;23.344;2022-07-29T00:19:38;18.50;;;13.75;;
20026;SDS011;10174;42.688;23.344;2022-07-29T00:22:04;19.13;;;13.60;;
20026;SDS011;10174;42.688;23.344;2022-07-29T00:24:29;16.63;;;13.55;;
20026;SDS011;10174;42.688;23.344;2022-07-29T00:26:54;23.38;;;13.95;;
20026;SDS011;10174;42.688;23.344;2022-07-29T00:29:20;17.58;;;13.48;;
20026;SDS011;10174;42.688;23.344;2022-07-29T00:31:45;17.50;;;14.13;;
20026;SDS011;10174;42.688;23.344;2022-07-29T00:34:11;16.88;;;13.68;;
20026;SDS011;10174;42.688;23.344;2022-07-29T00:36:55;15.43;;;12.95;;
20026;SDS011;10174;42.688;23.344;2022-07-29T00:39:20;22.75;;;13.27;;
20026;SDS011;10174;42.688;23.344;2022-07-29T00:41:46;17.60;;;14.15;;
20026;SDS011;10174;42.688;23.344;2022-07-29T00:44:11;18.48;;;13.05;;
20026;SDS011;10174;42.688;23.344;2022-07-29T00:46:37;23.17;;;14.18;;
20026;SDS011;10174;42.688;23.344;2022-07-29T00:49:02;19.00;;;14.20;;
20026;SDS011;10174;42.688;23.344;2022-07-29T00:51:28;17.80;;;13.65;;
20026;SDS011;10174;42.688;23.344;2022-07-29T00:53:54;19.08;;;13.63;;
20026;SDS011;10174;42.688;23.344;2022-07-29T00:56:19;18.60;;;14.40;;
20026;SDS011;10174;42.688;23.344;2022-07-29T00:58:45;31.42;;;17.10;;
20026;SDS011;10174;42.688;23.344;2022-07-29T01:01:13;30.70;;;20.30;;
20026;SDS011;10174;42.688;23.344;2022-07-29T01:03:38;24.67;;;18.92;;
20026;SDS011;10174;42.688;23.344;2022-07-29T01:06:04;31.80;;;20.17;;
20026;SDS011;10174;42.688;23.344;2022-07-29T01:08:30;27.48;;;19.38;;
20026;SDS011;10174;42.688;23.344;2022-07-29T01:10:57;26.98;;;20.00;;
20026;SDS011;10174;42.688;23.344;2022-07-29T01:13:24;28.63;;;19.48;;
20026;SDS011;10174;42.688;23.344;2022-07-29T01:15:51;27.30;;;20.73;;
20026;SDS011;10174;42.688;23.344;2022-07-29T01:18:24;30.63;;;21.58;;
20026;SDS011;10174;42.688;23.344;2022-07-29T01:32:10;26.83;;;19.73;;
20026;SDS011;10174;42.688;23.344;2022-07-29T01:39:56;27.42;;;19.63;;
20026;SDS011;10174;42.688;23.344;2022-07-29T01:42:42;28.83;;;22.15;;
20026;SDS011;10174;42.688;23.344;2022-07-29T01:56:21;33.65;;;20.58;;
20026;SDS011;10174;42.688;23.344;2022-07-29T01:58:48;30.77;;;20.35;;
20026;SDS011;10174;42.688;23.344;2022-07-29T02:01:17;30.85;;;20.67;;
20026;SDS011;10174;42.688;23.344;2022-07-29T02:03:44;31.35;;;20.67;;
20026;SDS011;10174;42.688;23.344;2022-07-29T02:06:11;35.58;;;21.15;;
20026;SDS011;10174;42.688;23.344;2022-07-29T02:08:38;26.27;;;20.50;;
20026;SDS011;10174;42.688;23.344;2022-07-29T02:11:05;31.83;;;21.75;;
20026;SDS011;10174;42.688;23.344;2022-07-29T02:13:33;32.50;;;20.95;;
20026;SDS011;10174;42.688;23.344;2022-07-29T02:16:00;30.70;;;22.25;;
20026;SDS011;10174;42.688;23.344;2022-07-29T02:18:30;31.75;;;21.02;;
20026;SDS011;10174;42.688;23.344;2022-07-29T02:20:58;27.85;;;21.33;;
20026;SDS011;10174;42.688;23.344;2022-07-29T02:23:25;30.42;;;20.55;;
20026;SDS011;10174;42.688;23.344;2022-07-29T02:25:53;29.83;;;21.20;;
20026;SDS011;10174;42.688;23.344;2022-07-29T02:28:21;29.38;;;21.33;;
20026;SDS011;10174;42.688;23.344;2022-07-29T02:30:49;31.33;;;22.75;;
20026;SDS011;10174;42.688;23.344;2022-07-29T02:33:16;29.15;;;23.10;;
20026;SDS011;10174;42.688;23.344;2022-07-29T02:35:46;35.55;;;23.02;;
20026;SDS011;10174;42.688;23.344;2022-07-29T02:38:13;36.47;;;22.73;;
20026;SDS011;10174;42.688;23.344;2022-07-29T02:41:00;32.80;;;21.08;;
20026;SDS011;10174;42.688;23.344;2022-07-29T02:43:28;34.05;;;21.90;;
20026;SDS011;10174;42.688;23.344;2022-07-29T02:45:56;30.88;;;21.35;;
20026;SDS011;10174;42.688;23.344;2022-07-29T02:48:27;30.20;;;21.58;;
20026;SDS011;10174;42.688;23.344;2022-07-29T02:51:05;33.40;;;21.30;;
20026;SDS011;10174;42.688;23.344;2022-07-29T02:53:33;29.80;;;21.00;;
20026;SDS011;10174;42.688;23.344;2022-07-29T02:56:04;34.78;;;22.17;;
20026;SDS011;10174;42.688;23.344;2022-07-29T02:58:34;33.15;;;20.95;;
20026;SDS011;10174;42.688;23.344;2022-07-29T03:01:04;40.95;;;22.42;;
20026;SDS011;10174;42.688;23.344;2022-07-29T03:03:45;32.53;;;21.10;;
20026;SDS011;10174;42.688;23.344;2022-07-29T03:06:13;28.35;;;20.20;;
20026;SDS011;10174;42.688;23.344;2022-07-29T03:08:40;30.10;;;20.75;;
20026;SDS011;10174;42.688;23.344;2022-07-29T03:11:07;33.85;;;22.45;;
20026;SDS011;10174;42.688;23.344;2022-07-29T03:13:34;30.52;;;21.10;;
20026;SDS011;10174;42.688;23.344;2022-07-29T03:16:00;25.00;;;19.63;;
20026;SDS011;10174;42.688;23.344;2022-07-29T03:18:27;25.02;;;18.42;;
20026;SDS011;10174;42.688;23.344;2022-07-29T03:20:53;27.08;;;17.80;;
20026;SDS011;10174;42.688;23.344;2022-07-29T03:23:20;33.47;;;19.48;;
20026;SDS011;10174;42.688;23.344;2022-07-29T03:25:47;28.83;;;19.48;;
20026;SDS011;10174;42.688;23.344;2022-07-29T03:28:14;30.30;;;19.27;;
20026;SDS011;10174;42.688;23.344;2022-07-29T03:30:39;25.52;;;17.95;;
20026;SDS011;10174;42.688;23.344;2022-07-29T03:33:05;28.42;;;18.95;;
20026;SDS011;10174;42.688;23.344;2022-07-29T03:35:30;25.35;;;17.85;;
20026;SDS011;10174;42.688;23.344;2022-07-29T03:37:56;30.23;;;18.92;;
20026;SDS011;10174;42.688;23.344;2022-07-29T03:40:24;27.77;;;18.90;;
20026;SDS011;10174;42.688;23.344;2022-07-29T03:42:55;26.38;;;18.10;;
20026;SDS011;10174;42.688;23.344;2022-07-29T03:45:21;23.92;;;17.50;;
20026;SDS011;10174;42.688;23.344;2022-07-29T03:47:50;23.02;;;17.17;;
20026;SDS011;10174;42.688;23.344;2022-07-29T03:50:20;29.88;;;18.25;;
20026;SDS011;10174;42.688;23.344;2022-07-29T03:52:47;23.95;;;18.05;;
20026;SDS011;10174;42.688;23.344;2022-07-29T03:55:13;27.73;;;18.02;;
20026;SDS011;10174;42.688;23.344;2022-07-29T03:57:39;32.13;;;19.73;;
20026;SDS011;10174;42.688;23.344;2022-07-29T04:00:07;24.70;;;18.33;;
20026;SDS011;10174;42.688;23.344;2022-07-29T04:02:33;29.48;;;18.15;;
20026;SDS011;10174;42.688;23.344;2022-07-29T04:04:59;27.27;;;18.90;;
20026;SDS011;10174;42.688;23.344;2022-07-29T04:07:24;25.60;;;18.80;;
20026;SDS011;10174;42.688;23.344;2022-07-29T04:09:50;33.55;;;20.10;;
20026;SDS011;10174;42.688;23.344;2022-07-29T04:12:16;32.03;;;18.85;;
20026;SDS011;10174;42.688;23.344;2022-07-29T04:14:41;27.98;;;17.83;;
20026;SDS011;10174;42.688;23.344;2022-07-29T04:17:07;27.40;;;18.27;;
20026;SDS011;10174;42.688;23.344;2022-07-29T04:19:32;25.15;;;17.83;;
20026;SDS011;10174;42.688;23.344;2022-07-29T04:21:58;28.05;;;18.48;;
20026;SDS011;10174;42.688;23.344;2022-07-29T04:24:24;32.80;;;18.38;;
20026;SDS011;10174;42.688;23.344;2022-07-29T04:26:50;24.67;;;16.88;;
20026;SDS011;10174;42.688;23.344;2022-07-29T04:29:16;28.48;;;17.45;;
20026;SDS011;10174;42.688;23.344;2022-07-29T04:31:41;37.70;;;18.45;;
20026;SDS011;10174;42.688;23.344;2022-07-29T04:34:07;27.20;;;15.60;;
20026;SDS011;10174;42.688;23.344;2022-07-29T04:36:34;21.52;;;14.23;;
20026;SDS011;10174;42.688;23.344;2022-07-29T04:38:59;21.60;;;12.85;;
20026;SDS011;10174;42.688;23.344;2022-07-29T04:41:26;26.58;;;13.35;;
20026;SDS011;10174;42.688;23.344;2022-07-29T04:43:51;24.83;;;14.38;;
20026;SDS011;10174;42.688;23.344;2022-07-29T04:46:16;23.98;;;13.25;;
20026;SDS011;10174;42.688;23.344;2022-07-29T04:48:42;24.70;;;12.82;;
20026;SDS011;10174;42.688;23.344;2022-07-29T04:51:10;19.65;;;12.50;;
20026;SDS011;10174;42.688;23.344;2022-07-29T04:53:35;20.25;;;11.98;;
20026;SDS011;10174;42.688;23.344;2022-07-29T04:56:01;18.98;;;12.63;;
20026;SDS011;10174;42.688;23.344;2022-07-29T04:58:27;19.98;;;12.07;;
20026;SDS011;10174;42.688;23.344;2022-07-29T05:00:52;19.35;;;11.63;;
20026;SDS011;10174;42.688;23.344;2022-07-29T05:03:18;19.27;;;11.80;;
20026;SDS011;10174;42.688;23.344;2022-07-29T05:05:43;22.05;;;12.35;;
20026;SDS011;10174;42.688;23.344;2022-07-29T05:08:08;21.92;;;12.93;;
20026;SDS011;10174;42.688;23.344;2022-07-29T05:10:34;22.30;;;11.82;;
20026;SDS011;10174;42.688;23.344;2022-07-29T05:13:03;21.05;;;11.80;;
20026;SDS011;10174;42.688;23.344;2022-07-29T05:15:33;20.63;;;12.63;;
20026;SDS011;10174;42.688;23.344;2022-07-29T05:17:59;22.85;;;11.70;;
20026;SDS011;10174;42.688;23.344;2022-07-29T05:20:25;22.80;;;11.93;;
20026;SDS011;10174;42.688;23.344;2022-07-29T05:22:53;23.25;;;13.25;;
20026;SDS011;10174;42.688;23.344;2022-07-29T05:25:23;102.95;;;52.13;;
20026;SDS011;10174;42.688;23.344;2022-07-29T05:27:49;48.95;;;25.38;;
20026;SDS011;10174;42.688;23.344;2022-07-29T05:30:14;20.90;;;13.80;;
20026;SDS011;10174;42.688;23.344;2022-07-29T05:32:40;23.35;;;12.25;;
20026;SDS011;10174;42.688;23.344;2022-07-29T05:35:06;20.33;;;11.77;;
20026;SDS011;10174;42.688;23.344;2022-07-29T05:37:32;25.63;;;13.52;;
20026;SDS011;10174;42.688;23.344;2022-07-29T05:39:58;24.80;;;12.43;;
20026;SDS011;10174;42.688;23.344;2022-07-29T05:42:24;22.10;;;10.55;;
20026;SDS011;10174;42.688;23.344;2022-07-29T05:44:50;18.55;;;10.48;;
20026;SDS011;10174;42.688;23.344;2022-07-29T05:47:15;17.55;;;9.93;;
20026;SDS011;10174;42.688;23.344;2022-07-29T05:49:41;16.83;;;11.60;;
20026;SDS011;10174;42.688;23.344;2022-07-29T05:52:06;21.45;;;10.48;;
20026;SDS011;10174;42.688;23.344;2022-07-29T05:54:32;17.55;;;7.93;;
20026;SDS011;10174;42.688;23.344;2022-07-29T05:56:57;16.38;;;8.45;;
20026;SDS011;10174;42.688;23.344;2022-07-29T05:59:22;14.35;;;10.45;;
20026;SDS011;10174;42.688;23.344;2022-07-29T06:01:48;13.95;;;8.77;;
20026;SDS011;10174;42.688;23.344;2022-07-29T06:04:13;16.38;;;9.35;;
20026;SDS011;10174;42.688;23.344;2022-07-29T06:06:39;12.07;;;9.57;;
20026;SDS011;10174;42.688;23.344;2022-07-29T06:09:04;19.77;;;9.82;;
20026;SDS011;10174;42.688;23.344;2022-07-29T06:11:29;23.08;;;10.82;;
20026;SDS011;10174;42.688;23.344;2022-07-29T06:13:55;12.77;;;8.77;;
20026;SDS011;10174;42.688;23.344;2022-07-29T06:16:20;15.52;;;8.52;;
20026;SDS011;10174;42.688;23.344;2022-07-29T06:18:46;15.00;;;8.75;;
20026;SDS011;10174;42.688;23.344;2022-07-29T06:21:11;15.32;;;7.50;;
20026;SDS011;10174;42.688;23.344;2022-07-29T06:23:37;15.73;;;8.32;;
20026;SDS011;10174;42.688;23.344;2022-07-29T06:26:03;18.58;;;10.65;;
20026;SDS011;10174;42.688;23.344;2022-07-29T06:28:29;20.10;;;9.88;;
20026;SDS011;10174;42.688;23.344;2022-07-29T06:30:55;11.00;;;7.95;;
20026;SDS011;10174;42.688;23.344;2022-07-29T06:33:20;20.23;;;10.02;;
20026;SDS011;10174;42.688;23.344;2022-07-29T06:35:47;12.93;;;7.63;;
20026;SDS011;10174;42.688;23.344;2022-07-29T06:38:12;13.13;;;7.90;;
20026;SDS011;10174;42.688;23.344;2022-07-29T06:40:42;21.05;;;8.07;;
20026;SDS011;10174;42.688;23.344;2022-07-29T06:43:28;15.65;;;9.68;;
20026;SDS011;10174;42.688;23.344;2022-07-29T06:45:57;10.95;;;6.60;;
20026;SDS011;10174;42.688;23.344;2022-07-29T06:48:26;11.55;;;7.43;;
20026;SDS011;10174;42.688;23.344;2022-07-29T06:50:52;11.25;;;7.25;;
20026;SDS011;10174;42.688;23.344;2022-07-29T06:53:17;11.63;;;7.60;;
20026;SDS011;10174;42.688;23.344;2022-07-29T06:55:43;15.60;;;6.53;;
20026;SDS011;10174;42.688;23.344;2022-07-29T06:58:08;17.50;;;7.43;;
20026;SDS011;10174;42.688;23.344;2022-07-29T07:00:34;20.77;;;7.43;;
20026;SDS011;10174;42.688;23.344;2022-07-29T07:03:00;13.90;;;6.88;;
20026;SDS011;10174;42.688;23.344;2022-07-29T07:05:26;11.25;;;6.82;;
20026;SDS011;10174;42.688;23.344;2022-07-29T07:07:51;18.70;;;7.82;;
20026;SDS011;10174;42.688;23.344;2022-07-29T07:10:17;12.32;;;6.28;;
20026;SDS011;10174;42.688;23.344;2022-07-29T07:12:42;12.38;;;5.50;;
20026;SDS011;10174;42.688;23.344;2022-07-29T07:15:08;14.45;;;6.57;;
20026;SDS011;10174;42.688;23.344;2022-07-29T07:17:33;22.75;;;7.03;;
20026;SDS011;10174;42.688;23.344;2022-07-29T07:19:59;7.97;;;6.18;;
20026;SDS011;10174;42.688;23.344;2022-07-29T07:22:24;11.93;;;6.30;;
20026;SDS011;10174;42.688;23.344;2022-07-29T07:24:49;12.07;;;6.30;;
20026;SDS011;10174;42.688;23.344;2022-07-29T07:27:15;11.60;;;5.90;;
20026;SDS011;10174;42.688;23.344;2022-07-29T07:29:40;8.65;;;6.15;;
20026;SDS011;10174;42.688;23.344;2022-07-29T07:32:06;7.75;;;5.32;;
20026;SDS011;10174;42.688;23.344;2022-07-29T07:34:32;7.07;;;5.40;;
20026;SDS011;10174;42.688;23.344;2022-07-29T07:36:57;8.38;;;5.43;;
20026;SDS011;10174;42.688;23.344;2022-07-29T07:39:23;9.57;;;5.68;;
20026;SDS011;10174;42.688;23.344;2022-07-29T07:41:48;8.57;;;4.80;;
20026;SDS011;10174;42.688;23.344;2022-07-29T07:44:14;8.13;;;5.07;;
20026;SDS011;10174;42.688;23.344;2022-07-29T07:46:39;7.95;;;5.30;;
20026;SDS011;10174;42.688;23.344;2022-07-29T07:49:04;12.05;;;5.88;;
20026;SDS011;10174;42.688;23.344;2022-07-29T07:51:30;14.02;;;5.20;;
20026;SDS011;10174;42.688;23.344;2022-07-29T07:53:55;10.00;;;5.65;;
20026;SDS011;10174;42.688;23.344;2022-07-29T07:56:20;13.55;;;5.40;;
20026;SDS011;10174;42.688;23.344;2022-07-29T07:58:46;12.50;;;5.25;;
20026;SDS011;10174;42.688;23.344;2022-07-29T08:01:11;14.65;;;5.50;;
20026;SDS011;10174;42.688;23.344;2022-07-29T08:03:37;8.30;;;4.57;;
20026;SDS011;10174;42.688;23.344;2022-07-29T08:06:03;9.23;;;5.10;;
20026;SDS011;10174;42.688;23.344;2022-07-29T08:08:28;8.30;;;4.93;;
20026;SDS011;10174;42.688;23.344;2022-07-29T08:10:54;9.00;;;4.75;;
20026;SDS011;10174;42.688;23.344;2022-07-29T08:13:23;9.45;;;4.63;;
20026;SDS011;10174;42.688;23.344;2022-07-29T08:15:50;10.35;;;5.18;;
20026;SDS011;10174;42.688;23.344;2022-07-29T08:18:26;12.30;;;6.00;;
20026;SDS011;10174;42.688;23.344;2022-07-29T08:20:53;14.98;;;5.25;;
20026;SDS011;10174;42.688;23.344;2022-07-29T08:23:19;8.05;;;4.72;;
20026;SDS011;10174;42.688;23.344;2022-07-29T08:25:45;8.75;;;4.55;;
20026;SDS011;10174;42.688;23.344;2022-07-29T08:28:11;8.05;;;4.50;;
20026;SDS011;10174;42.688;23.344;2022-07-29T08:30:36;11.95;;;4.15;;
20026;SDS011;10174;42.688;23.344;2022-07-29T08:33:02;5.55;;;3.97;;
20026;SDS011;10174;42.688;23.344;2022-07-29T08:35:27;6.82;;;4.22;;
20026;SDS011;10174;42.688;23.344;2022-07-29T08:37:53;9.15;;;4.75;;
20026;SDS011;10174;42.688;23.344;2022-07-29T08:40:19;6.25;;;4.07;;
20026;SDS011;10174;42.688;23.344;2022-07-29T08:42:45;7.15;;;4.07;;
20026;SDS011;10174;42.688;23.344;2022-07-29T08:45:11;6.10;;;3.80;;
20026;SDS011;10174;42.688;23.344;2022-07-29T08:47:40;4.53;;;3.90;;
20026;SDS011;10174;42.688;23.344;2022-07-29T08:50:08;5.72;;;3.50;;
20026;SDS011;10174;42.688;23.344;2022-07-29T08:52:36;8.32;;;3.80;;
20026;SDS011;10174;42.688;23.344;2022-07-29T08:55:03;7.22;;;4.13;;
20026;SDS011;10174;42.688;23.344;2022-07-29T08:57:30;6.80;;;3.67;;
20026;SDS011;10174;42.688;23.344;2022-07-29T08:59:57;6.35;;;3.50;;
20026;SDS011;10174;42.688;23.344;2022-07-29T09:02:24;9.77;;;3.83;;
20026;SDS011;10174;42.688;23.344;2022-07-29T09:04:53;5.20;;;3.42;;
20026;SDS011;10174;42.688;23.344;2022-07-29T09:07:19;4.68;;;3.30;;
20026;SDS011;10174;42.688;23.344;2022-07-29T09:09:45;8.73;;;3.28;;
20026;SDS011;10174;42.688;23.344;2022-07-29T09:12:10;9.43;;;3.72;;
20026;SDS011;10174;42.688;23.344;2022-07-29T09:14:37;4.47;;;3.00;;
20026;SDS011;10174;42.688;23.344;2022-07-29T09:17:03;6.30;;;3.28;;
20026;SDS011;10174;42.688;23.344;2022-07-29T09:19:29;9.48;;;3.63;;
20026;SDS011;10174;42.688;23.344;2022-07-29T09:21:57;6.80;;;4.00;;
20026;SDS011;10174;42.688;23.344;2022-07-29T09:24:26;7.70;;;3.63;;
20026;SDS011;10174;42.688;23.344;2022-07-29T09:29:45;9.07;;;4.50;;
20026;SDS011;10174;42.688;23.344;2022-07-29T09:32:11;10.98;;;5.30;;
20026;SDS011;10174;42.688;23.344;2022-07-29T09:34:37;9.80;;;4.40;;
20026;SDS011;10174;42.688;23.344;2022-07-29T09:37:03;8.93;;;3.83;;
20026;SDS011;10174;42.688;23.344;2022-07-29T09:39:30;5.03;;;3.58;;
20026;SDS011;10174;42.688;23.344;2022-07-29T09:42:03;10.35;;;4.10;;
20026;SDS011;10174;42.688;23.344;2022-07-29T09:44:49;5.90;;;3.38;;
20026;SDS011;10174;42.688;23.344;2022-07-29T09:47:16;9.13;;;3.80;;
20026;SDS011;10174;42.688;23.344;2022-07-29T09:49:55;12.43;;;3.80;;
20026;SDS011;10174;42.688;23.344;2022-07-29T09:52:25;5.75;;;3.78;;
20026;SDS011;10174;42.688;23.344;2022-07-29T09:54:51;6.05;;;3.40;;
20026;SDS011;10174;42.688;23.344;2022-07-29T09:57:25;4.68;;;3.42;;
20026;SDS011;10174;42.688;23.344;2022-07-29T09:59:58;8.05;;;3.30;;
20026;SDS011;10174;42.688;23.344;2022-07-29T10:02:30;6.60;;;3.60;;
20026;SDS011;10174;42.688;23.344;2022-07-29T10:04:57;3.60;;;3.08;;
20026;SDS011;10174;42.688;23.344;2022-07-29T10:07:24;6.45;;;3.45;;
20026;SDS011;10174;42.688;23.344;2022-07-29T10:09:53;13.85;;;4.25;;
20026;SDS011;10174;42.688;23.344;2022-07-29T10:12:20;5.50;;;4.07;;
20026;SDS011;10174;42.688;23.344;2022-07-29T10:14:46;9.95;;;6.57;;
20026;SDS011;10174;42.688;23.344;2022-07-29T10:17:12;9.93;;;4.95;;
20026;SDS011;10174;42.688;23.344;2022-07-29T10:19:38;5.25;;;3.28;;
20026;SDS011;10174;42.688;23.344;2022-07-29T10:22:05;5.95;;;3.47;;
20026;SDS011;10174;42.688;23.344;2022-07-29T10:24:33;5.75;;;2.95;;
20026;SDS011;10174;42.688;23.344;2022-07-29T10:26:59;8.60;;;4.18;;
20026;SDS011;10174;42.688;23.344;2022-07-29T10:29:26;7.32;;;3.17;;
20026;SDS011;10174;42.688;23.344;2022-07-29T10:40:11;8.23;;;3.53;;
20026;SDS011;10174;42.688;23.344;2022-07-29T10:43:16;6.00;;;2.95;;
20026;SDS011;10174;42.688;23.344;2022-07-29T10:45:45;7.00;;;3.80;;
20026;SDS011;10174;42.688;23.344;2022-07-29T10:48:13;6.80;;;3.42;;
20026;SDS011;10174;42.688;23.344;2022-07-29T10:50:52;7.88;;;3.10;;
20026;SDS011;10174;42.688;23.344;2022-07-29T10:53:18;5.15;;;3.22;;
20026;SDS011;10174;42.688;23.344;2022-07-29T10:55:44;4.78;;;3.22;;
20026;SDS011;10174;42.688;23.344;2022-07-29T11:00:46;6.85;;;3.05;;
20026;SDS011;10174;42.688;23.344;2022-07-29T11:06:15;3.70;;;3.33;;
20026;SDS011;10174;42.688;23.344;2022-07-29T11:08:41;10.02;;;3.50;;
20026;SDS011;10174;42.688;23.344;2022-07-29T11:13:45;11.27;;;3.85;;
20026;SDS011;10174;42.688;23.344;2022-07-29T11:16:15;14.80;;;3.78;;
20026;SDS011;10174;42.688;23.344;2022-07-29T11:21:38;4.60;;;3.10;;
20026;SDS011;10174;42.688;23.344;2022-07-29T11:24:16;7.13;;;3.40;;
20026;SDS011;10174;42.688;23.344;2022-07-29T11:26:41;5.78;;;3.70;;
20026;SDS011;10174;42.688;23.344;2022-07-29T11:29:20;6.82;;;3.50;;
20026;SDS011;10174;42.688;23.344;2022-07-29T11:31:51;4.60;;;3.22;;
20026;SDS011;10174;42.688;23.344;2022-07-29T11:39:42;5.80;;;3.53;;
20026;SDS011;10174;42.688;23.344;2022-07-29T11:47:31;9.48;;;6.88;;
20026;SDS011;10174;42.688;23.344;2022-07-29T11:50:05;7.70;;;4.97;;
20026;SDS011;10174;42.688;23.344;2022-07-29T11:52:42;5.20;;;3.75;;
20026;SDS011;10174;42.688;23.344;2022-07-29T11:55:14;6.57;;;4.10;;
20026;SDS011;10174;42.688;23.344;2022-07-29T11:57:48;6.07;;;4.10;;
20026;SDS011;10174;42.688;23.344;2022-07-29T12:00:38;8.88;;;4.60;;
20026;SDS011;10174;42.688;23.344;2022-07-29T12:03:09;6.07;;;5.03;;
20026;SDS011;10174;42.688;23.344;2022-07-29T12:05:39;6.47;;;4.90;;
20026;SDS011;10174;42.688;23.344;2022-07-29T12:08:17;5.88;;;4.65;;
20026;SDS011;10174;42.688;23.344;2022-07-29T12:10:46;9.30;;;5.10;;
20026;SDS011;10174;42.688;23.344;2022-07-29T12:13:13;8.40;;;4.70;;
20026;SDS011;10174;42.688;23.344;2022-07-29T12:15:42;4.85;;;4.00;;
20026;SDS011;10174;42.688;23.344;2022-07-29T12:18:19;5.82;;;4.47;;
20026;SDS011;10174;42.688;23.344;2022-07-29T12:20:46;6.97;;;4.38;;
20026;SDS011;10174;42.688;23.344;2022-07-29T12:23:13;8.10;;;4.55;;
20026;SDS011;10174;42.688;23.344;2022-07-29T12:25:40;7.68;;;4.93;;
20026;SDS011;10174;42.688;23.344;2022-07-29T12:28:08;9.32;;;5.05;;
20026;SDS011;10174;42.688;23.344;2022-07-29T12:35:38;9.85;;;4.53;;
20026;SDS011;10174;42.688;23.344;2022-07-29T12:38:04;9.65;;;6.05;;
20026;SDS011;10174;42.688;23.344;2022-07-29T12:40:30;5.80;;;4.70;;
20026;SDS011;10174;42.688;23.344;2022-07-29T12:45:51;10.25;;;5.82;;
20026;SDS011;10174;42.688;23.344;2022-07-29T12:48:40;7.13;;;5.18;;
20026;SDS011;10174;42.688;23.344;2022-07-29T12:51:05;6.82;;;5.28;;
20026;SDS011;10174;42.688;23.344;2022-07-29T12:53:32;8.05;;;5.40;;
20026;SDS011;10174;42.688;23.344;2022-07-29T12:55:58;7.47;;;6.00;;
20026;SDS011;10174;42.688;23.344;2022-07-29T12:58:36;8.60;;;5.40;;
20026;SDS011;10174;42.688;23.344;2022-07-29T13:01:16;9.88;;;5.63;;
20026;SDS011;10174;42.688;23.344;2022-07-29T13:03:51;10.80;;;6.03;;
20026;SDS011;10174;42.688;23.344;2022-07-29T13:06:33;12.77;;;5.47;;
20026;SDS011;10174;42.688;23.344;2022-07-29T13:11:49;10.55;;;6.80;;
20026;SDS011;10174;42.688;23.344;2022-07-29T13:14:35;8.23;;;7.03;;
20026;SDS011;10174;42.688;23.344;2022-07-29T13:19:38;7.13;;;5.75;;
20026;SDS011;10174;42.688;23.344;2022-07-29T13:22:05;7.43;;;5.30;;
20026;SDS011;10174;42.688;23.344;2022-07-29T13:24:32;9.75;;;5.63;;
20026;SDS011;10174;42.688;23.344;2022-07-29T13:26:58;7.82;;;5.47;;
20026;SDS011;10174;42.688;23.344;2022-07-29T13:29:23;7.63;;;5.30;;
20026;SDS011;10174;42.688;23.344;2022-07-29T13:31:48;6.75;;;5.10;;
20026;SDS011;10174;42.688;23.344;2022-07-29T13:34:14;7.75;;;5.63;;
20026;SDS011;10174;42.688;23.344;2022-07-29T13:36:40;10.68;;;5.70;;
20026;SDS011;10174;42.688;23.344;2022-07-29T13:39:05;9.65;;;5.43;;
20026;SDS011;10174;42.688;23.344;2022-07-29T13:41:30;7.65;;;4.93;;
20026;SDS011;10174;42.688;23.344;2022-07-29T13:43:56;6.07;;;4.82;;
20026;SDS011;10174;42.688;23.344;2022-07-29T13:46:21;9.18;;;5.93;;
20026;SDS011;10174;42.688;23.344;2022-07-29T13:48:46;6.22;;;5.25;;
20026;SDS011;10174;42.688;23.344;2022-07-29T13:51:12;9.93;;;4.80;;
20026;SDS011;10174;42.688;23.344;2022-07-29T13:53:38;5.82;;;4.80;;
20026;SDS011;10174;42.688;23.344;2022-07-29T13:56:03;6.88;;;5.20;;
20026;SDS011;10174;42.688;23.344;2022-07-29T13:58:31;6.28;;;4.78;;
20026;SDS011;10174;42.688;23.344;2022-07-29T14:00:57;5.82;;;4.90;;
20026;SDS011;10174;42.688;23.344;2022-07-29T14:03:23;9.60;;;6.10;;
20026;SDS011;10174;42.688;23.344;2022-07-29T14:05:49;6.53;;;5.38;;
20026;SDS011;10174;42.688;23.344;2022-07-29T14:08:14;7.70;;;5.88;;
20026;SDS011;10174;42.688;23.344;2022-07-29T14:10:40;8.18;;;5.47;;
20026;SDS011;10174;42.688;23.344;2022-07-29T14:13:05;8.25;;;5.43;;
20026;SDS011;10174;42.688;23.344;2022-07-29T14:15:31;8.10;;;5.85;;
20026;SDS011;10174;42.688;23.344;2022-07-29T14:17:56;8.38;;;5.75;;
20026;SDS011;10174;42.688;23.344;2022-07-29T14:20:21;11.73;;;5.68;;
20026;SDS011;10174;42.688;23.344;2022-07-29T14:22:47;8.55;;;6.03;;
20026;SDS011;10174;42.688;23.344;2022-07-29T14:25:13;10.27;;;6.00;;
20026;SDS011;10174;42.688;23.344;2022-07-29T14:27:38;8.73;;;5.75;;
20026;SDS011;10174;42.688;23.344;2022-07-29T14:30:04;34.28;;;14.93;;
20026;SDS011;10174;42.688;23.344;2022-07-29T14:32:31;12.98;;;6.65;;
20026;SDS011;10174;42.688;23.344;2022-07-29T14:34:56;11.05;;;7.90;;
20026;SDS011;10174;42.688;23.344;2022-07-29T14:37:22;8.52;;;5.43;;
20026;SDS011;10174;42.688;23.344;2022-07-29T14:39:47;10.90;;;5.78;;
20026;SDS011;10174;42.688;23.344;2022-07-29T14:42:12;9.77;;;6.22;;
20026;SDS011;10174;42.688;23.344;2022-07-29T14:44:38;6.68;;;5.30;;
20026;SDS011;10174;42.688;23.344;2022-07-29T14:47:06;7.13;;;5.10;;
20026;SDS011;10174;42.688;23.344;2022-07-29T14:49:31;9.52;;;5.13;;
20026;SDS011;10174;42.688;23.344;2022-07-29T14:51:56;11.73;;;5.50;;
20026;SDS011;10174;42.688;23.344;2022-07-29T14:54:22;6.22;;;5.30;;
20026;SDS011;10174;42.688;23.344;2022-07-29T14:56:47;11.05;;;5.50;;
20026;SDS011;10174;42.688;23.344;2022-07-29T14:59:14;10.52;;;6.53;;
20026;SDS011;10174;42.688;23.344;2022-07-29T15:01:39;8.57;;;6.43;;
20026;SDS011;10174;42.688;23.344;2022-07-29T15:04:05;7.57;;;6.68;;
20026;SDS011;10174;42.688;23.344;2022-07-29T15:06:30;8.55;;;6.35;;
20026;SDS011;10174;42.688;23.344;2022-07-29T15:08:55;9.85;;;6.35;;
20026;SDS011;10174;42.688;23.344;2022-07-29T15:11:21;7.90;;;5.93;;
20026;SDS011;10174;42.688;23.344;2022-07-29T15:13:46;9.68;;;6.57;;
20026;SDS011;10174;42.688;23.344;2022-07-29T15:16:12;11.45;;;5.95;;
20026;SDS011;10174;42.688;23.344;2022-07-29T15:18:37;8.38;;;6.03;;
20026;SDS011;10174;42.688;23.344;2022-07-29T15:21:03;13.25;;;9.00;;
20026;SDS011;10174;42.688;23.344;2022-07-29T15:23:31;10.90;;;6.70;;
20026;SDS011;10174;42.688;23.344;2022-07-29T15:25:56;9.07;;;6.68;;
20026;SDS011;10174;42.688;23.344;2022-07-29T15:28:22;10.93;;;6.65;;
20026;SDS011;10174;42.688;23.344;2022-07-29T15:30:47;12.65;;;6.80;;
20026;SDS011;10174;42.688;23.344;2022-07-29T15:33:12;8.88;;;6.18;;
20026;SDS011;10174;42.688;23.344;2022-07-29T15:35:38;14.45;;;6.43;;